Kahuta Weather



Kahuta's Current Weather

Temprature 38.42o few clouds

few clouds

Rain: 0 %

Min Temprature38o
Max Temprature38.89o
Humidity21
Wind Speed4.1 m/h
Sun Rise04:57:48
Sun Set19:20:21
Current Time: 26-Jun-2019 15:16:41
Lat/Lon: 33.59, 73.39




Kahuta's Geo Location



Kahuta's Weather Forecast

Time Overall Temp Min Temp Max Temp Humidity Wind Speed Rain
26-Jun-2019 (Wed)
17:00:00 clear sky 38.760 38.760 39.750 13 4.79 m/h 0 %
20:00:00 clear sky 35.400 35.400 36.147 14 3.04 m/h 0 %
23:00:00 clear sky 33.240 33.240 33.740 16 3.37 m/h 0 %
27-Jun-2019 (Thu)
02:00:00 clear sky 30.130 30.130 30.379 28 2.23 m/h 0 %
05:00:00 clear sky 29.465 29.465 29.465 27 1.93 m/h 0 %
08:00:00 clear sky 34.450 34.450 34.450 18 3.48 m/h 0 %
11:00:00 few clouds 38.574 38.574 38.574 14 3.36 m/h 0 %
14:00:00 clear sky 40.750 40.750 40.750 11 2.28 m/h 0 %
17:00:00 clear sky 41.280 41.280 41.280 11 3.12 m/h 0 %
20:00:00 few clouds 37.694 37.694 37.694 15 2.87 m/h 0 %
23:00:00 clear sky 34.535 34.535 34.535 21 1.57 m/h 0 %
28-Jun-2019 (Fri)
02:00:00 clear sky 32.428 32.428 32.428 22 2.01 m/h 0 %
05:00:00 clear sky 30.028 30.028 30.028 28 1.62 m/h 0 %
08:00:00 clear sky 35.159 35.159 35.159 19 0.43 m/h 0 %
11:00:00 clear sky 39.725 39.725 39.725 14 2.49 m/h 0 %
14:00:00 clear sky 42.331 42.331 42.331 9 1.66 m/h 0 %
17:00:00 clear sky 42.550 42.550 42.550 10 3.43 m/h 0 %
20:00:00 clear sky 37.550 37.550 37.550 17 2.11 m/h 0 %
23:00:00 clear sky 35.672 35.672 35.672 15 2.1 m/h 0 %
29-Jun-2019 (Sat)
02:00:00 clear sky 32.472 32.472 32.472 20 1.39 m/h 0 %
05:00:00 clear sky 31.369 31.369 31.369 22 2.99 m/h 0 %
08:00:00 clear sky 36.547 36.547 36.547 17 2.62 m/h 0 %
11:00:00 clear sky 41.950 41.950 41.950 11 0.35 m/h 0 %
14:00:00 clear sky 44.050 44.050 44.050 8 1.44 m/h 0 %
17:00:00 clear sky 43.991 43.991 43.991 8 2.09 m/h 0 %
20:00:00 clear sky 38.750 38.750 38.750 17 1.67 m/h 0 %
23:00:00 clear sky 36.450 36.450 36.450 21 1.14 m/h 0 %
30-Jun-2019 (Sun)
02:00:00 light rain 34.506 34.506 34.506 19 2.34 m/h 25 %
05:00:00 light rain 32.422 32.422 32.422 23 1.05 m/h 6 %
08:00:00 broken clouds 37.112 37.112 37.112 15 1.18 m/h 0 %
11:00:00 scattered clouds 42.018 42.018 42.018 12 1.25 m/h 0 %
14:00:00 clear sky 44.208 44.208 44.208 10 2.87 m/h 0 %
17:00:00 clear sky 44.550 44.550 44.550 9 3.82 m/h 0 %
20:00:00 clear sky 39.450 39.450 39.450 14 2.7 m/h 0 %
23:00:00 clear sky 35.550 35.550 35.550 22 3.94 m/h 0 %
01-Jul-2019 (Mon)
02:00:00 clear sky 34.250 34.250 34.250 21 3.07 m/h 0 %
05:00:00 clear sky 32.735 32.735 32.735 22 4.07 m/h 0 %
08:00:00 clear sky 37.150 37.150 37.150 19 3.85 m/h 0 %
11:00:00 clear sky 41.150 41.150 41.150 16 2.77 m/h 0 %
14:00:00 clear sky 44.550 44.550 44.550 11 1.67 m/h 0 %

Famous Cities (60)